Time;durP1;ratioP1;P1;durP2;ratioP2;P2;SDS_P1;SDS_P2;PMS_P1;PMS_P2;Temp;Humidity;BMP_temperature;BMP_pressure;BME280_temperature;BME280_humidity;BME280_pressure;Samples;Min_cycle;Max_cycle;Signal;HPM_P1;HPM_P2
2021/08/10 00:03:20;;;;;;;4.90;4.20;;;;;;;18.28;67.60;99032.47;269733;1088;22594;-74
2021/08/10 00:08:31;;;;;;;6.10;4.50;;;;;;;18.26;67.71;99036.66;269696;1090;23468;-74
2021/08/10 00:13:36;;;;;;;6.50;4.80;;;;;;;18.18;67.88;99023.97;269472;1089;23462;-74
2021/08/10 00:18:44;;;;;;;6.30;4.60;;;;;;;18.13;68.06;99020.34;269741;1088;23327;-73
2021/08/10 00:23:48;;;;;;;7.95;4.35;;;;;;;18.13;68.30;99025.76;269678;1089;22545;-73
2021/08/10 00:29:08;;;;;;;6.95;4.30;;;;;;;18.14;68.66;99023.83;269752;1089;22568;-73
2021/08/10 00:34:25;;;;;;;5.80;4.35;;;;;;;18.15;68.77;99028.13;269708;1089;23397;-74
2021/08/10 00:39:28;;;;;;;7.73;4.40;;;;;;;18.17;68.55;99027.80;269468;1089;22584;-73
2021/08/10 00:44:32;;;;;;;6.15;4.95;;;;;;;18.20;68.52;99014.38;269665;1089;23761;-74
2021/08/10 00:49:39;;;;;;;6.95;4.75;;;;;;;18.20;68.33;99017.09;269698;1089;24803;-74
2021/08/10 00:54:44;;;;;;;7.45;5.15;;;;;;;18.15;68.51;99027.35;269486;1089;22616;-74
2021/08/10 00:59:49;;;;;;;6.95;4.85;;;;;;;18.16;68.65;99029.73;269682;1089;23267;-74
2021/08/10 01:04:55;;;;;;;6.70;4.80;;;;;;;18.18;68.58;99022.05;269499;1089;22734;-74
2021/08/10 01:10:28;;;;;;;6.60;5.15;;;;;;;18.10;68.54;99023.72;269480;1088;22684;-74
2021/08/10 01:15:45;;;;;;;8.45;5.40;;;;;;;18.03;68.82;99017.23;269497;1089;22587;-74
2021/08/10 01:21:19;;;;;;;7.45;4.50;;;;;;;17.91;68.86;99013.34;269698;1089;22654;-74
2021/08/10 01:26:57;;;;;;;7.70;5.10;;;;;;;17.81;69.06;99015.62;269484;1089;22564;-74
2021/08/10 01:32:06;;;;;;;7.43;5.03;;;;;;;17.78;69.64;99028.72;269500;1089;22577;-74
2021/08/10 01:37:13;;;;;;;7.35;5.05;;;;;;;17.70;69.64;99039.63;269504;1089;22560;-74
2021/08/10 01:42:23;;;;;;;10.40;6.65;;;;;;;17.60;70.08;99035.39;269716;1089;22600;-74
2021/08/10 01:47:30;;;;;;;10.77;6.37;;;;;;;17.39;70.50;99041.55;269424;1090;23063;-74
2021/08/10 01:52:44;;;;;;;11.85;5.80;;;;;;;17.17;71.34;99053.44;269681;1090;22554;-74
2021/08/10 01:57:58;;;;;;;8.50;6.00;;;;;;;17.04;71.81;99049.84;269697;1089;23280;-74
2021/08/10 02:03:09;;;;;;;8.65;5.60;;;;;;;17.06;72.27;99044.88;269505;1089;22619;-74
2021/08/10 02:08:29;;;;;;;6.75;5.20;;;;;;;17.06;72.70;99052.22;269716;1088;22589;-74
2021/08/10 02:13:33;;;;;;;7.65;5.05;;;;;;;17.05;73.03;99037.09;269492;1089;22561;-74
2021/08/10 02:18:40;;;;;;;7.03;4.80;;;;;;;17.14;73.35;99037.05;269707;1089;22534;-74
2021/08/10 02:23:49;;;;;;;8.15;4.80;;;;;;;17.12;73.10;99037.38;269719;1088;22685;-74
2021/08/10 02:28:53;;;;;;;7.65;5.15;;;;;;;17.05;73.25;99037.09;269448;1090;22567;-74
2021/08/10 02:34:05;;;;;;;8.95;4.90;;;;;;;17.10;73.79;99032.29;269693;1090;22585;-74
2021/08/10 02:39:10;;;;;;;7.97;5.40;;;;;;;17.20;73.98;99033.84;269711;1088;23133;-74
2021/08/10 02:44:15;;;;;;;7.15;5.10;;;;;;;17.30;73.90;99026.48;269701;1089;22558;-74
2021/08/10 02:49:23;;;;;;;7.95;5.20;;;;;;;17.39;74.01;99002.83;269712;1088;22579;-73
2021/08/10 02:54:33;;;;;;;7.10;5.55;;;;;;;17.48;74.06;99003.58;269710;1088;23745;-74
2021/08/10 02:59:54;;;;;;;10.05;6.00;;;;;;;17.54;74.11;98999.55;269411;1088;23022;-74
2021/08/10 03:05:14;;;;;;;8.05;5.00;;;;;;;17.55;73.58;98993.02;269508;1088;22587;-74
2021/08/10 03:10:20;;;;;;;7.75;5.00;;;;;;;17.54;73.53;98988.71;269466;1090;22573;-74
2021/08/10 03:15:27;;;;;;;8.15;5.55;;;;;;;17.53;73.71;98991.75;269660;1088;22593;-74
2021/08/10 03:20:34;;;;;;;7.00;5.80;;;;;;;17.48;73.65;98981.92;269715;1090;22587;-73
2021/08/10 03:25:51;;;;;;;7.70;5.00;;;;;;;17.45;73.68;98980.66;269408;1087;23045;-74
2021/08/10 03:31:07;;;;;;;;;;;;;;;17.42;74.00;98975.91;269558;1090;23360;-74
2021/08/10 03:36:13;;;;;;;7.70;6.03;;;;;;;17.37;73.69;98975.30;269439;1089;21255;-75
2021/08/10 03:41:17;;;;;;;7.80;6.25;;;;;;;17.30;73.81;98993.98;269719;1088;22644;-75
2021/08/10 03:46:22;;;;;;;9.25;5.90;;;;;;;17.24;73.96;98998.80;269693;1089;23163;-74
2021/08/10 03:51:28;;;;;;;6.30;5.15;;;;;;;17.24;73.96;98993.39;269474;1088;22623;-74
2021/08/10 03:56:34;;;;;;;6.65;5.30;;;;;;;17.22;74.00;99001.02;269484;1089;22602;-74
2021/08/10 04:01:39;;;;;;;8.35;5.85;;;;;;;17.20;74.34;98990.53;269491;1089;23502;-74
2021/08/10 04:06:44;;;;;;;6.95;5.05;;;;;;;17.16;74.04;98995.00;269479;1088;22573;-73
2021/08/10 04:11:50;;;;;;;9.65;5.20;;;;;;;17.12;74.40;98985.95;269477;1089;22575;-74
2021/08/10 04:17:02;;;;;;;9.23;5.40;;;;;;;17.08;74.13;98995.84;269537;1089;22566;-74
2021/08/10 04:22:10;;;;;;;7.35;5.80;;;;;;;16.78;74.01;98993.08;269650;1088;22567;-73
2021/08/10 04:27:27;;;;;;;9.05;6.20;;;;;;;16.59;74.42;98996.97;269720;1088;22610;-73
2021/08/10 04:32:40;;;;;;;9.50;6.55;;;;;;;16.58;74.79;99003.48;269697;1089;22563;-73
2021/08/10 04:37:58;;;;;;;9.25;6.30;;;;;;;16.64;75.33;99009.52;269476;1089;22582;-73
2021/08/10 04:43:02;;;;;;;8.20;6.80;;;;;;;16.70;75.39;99023.66;269468;1088;22588;-74
2021/08/10 04:48:08;;;;;;;8.90;7.00;;;;;;;16.83;76.00;99022.67;269442;1090;24159;-74
2021/08/10 04:53:12;;;;;;;9.60;6.40;;;;;;;16.97;75.68;99016.27;269741;1088;22977;-74
2021/08/10 04:58:15;;;;;;;7.90;6.60;;;;;;;17.15;75.79;99012.36;269739;1089;22573;-74
2021/08/10 05:03:18;;;;;;;11.80;6.85;;;;;;;17.32;75.94;99014.20;269690;1089;23705;-74
2021/08/10 05:08:21;;;;;;;8.40;7.30;;;;;;;17.45;75.48;99006.95;269733;1088;22601;-75
2021/08/10 05:13:27;;;;;;;10.15;7.60;;;;;;;17.53;75.66;99006.11;269677;1089;22722;-74
2021/08/10 05:18:31;;;;;;;8.50;6.95;;;;;;;17.60;75.62;99011.01;269718;1088;22577;-74
2021/08/10 05:23:35;;;;;;;8.35;6.35;;;;;;;17.71;75.20;99033.88;269737;1088;22581;-73
2021/08/10 05:28:40;;;;;;;9.20;7.00;;;;;;;17.87;75.52;99017.81;269678;1089;22552;-74
2021/08/10 05:33:43;;;;;;;10.20;6.55;;;;;;;18.16;75.59;99021.59;269683;1088;22574;-74
2021/08/10 05:38:53;;;;;;;10.53;5.73;;;;;;;18.46;75.16;99016.03;269477;1088;22589;-74
2021/08/10 05:43:56;;;;;;;8.45;5.20;;;;;;;18.75;74.52;99012.37;269668;1088;22562;-73
2021/08/10 05:49:08;;;;;;;6.80;5.55;;;;;;;18.90;73.29;98999.28;269563;1089;22678;-73
2021/08/10 05:54:32;;;;;;;8.40;5.40;;;;;;;19.11;73.26;99007.32;269575;1088;22590;-73
2021/08/10 05:59:35;;;;;;;6.15;4.95;;;;;;;19.29;72.79;99008.70;269658;1088;22530;-74
2021/08/10 06:04:38;;;;;;;9.00;5.80;;;;;;;19.42;71.98;99014.09;269567;1088;22514;-73
2021/08/10 06:09:43;;;;;;;6.87;4.70;;;;;;;19.52;71.04;99013.64;269503;1089;23340;-74
2021/08/10 06:14:48;;;;;;;7.97;4.97;;;;;;;19.68;71.32;99016.43;269509;1088;22778;-75
2021/08/10 06:19:52;;;;;;;7.60;5.37;;;;;;;19.82;70.26;99022.33;269692;1089;22543;-77
2021/08/10 06:24:56;;;;;;;8.70;6.00;;;;;;;19.91;69.70;99019.47;269425;1088;22529;-75
2021/08/10 06:30:00;;;;;;;10.13;5.37;;;;;;;20.11;70.49;99012.25;269561;1088;22506;-74
2021/08/10 06:35:05;;;;;;;8.35;5.20;;;;;;;20.39;70.27;99010.66;269584;1089;24071;-76
2021/08/10 06:40:10;;;;;;;8.10;5.93;;;;;;;20.59;69.08;99017.01;269281;1089;22537;-76
2021/08/10 06:45:14;;;;;;;8.78;6.10;;;;;;;20.61;68.54;99020.19;269486;1089;22557;-76
2021/08/10 06:50:19;;;;;;;8.00;4.95;;;;;;;20.77;68.66;99012.83;269662;1089;22570;-76
2021/08/10 06:55:22;;;;;;;9.23;6.60;;;;;;;20.88;67.54;99015.83;269495;1089;22564;-74
2021/08/10 07:00:27;;;;;;;9.10;6.30;;;;;;;20.97;67.91;99000.11;269386;1088;23129;-74
2021/08/10 07:05:43;;;;;;;7.63;5.38;;;;;;;21.18;67.98;99013.44;269465;1088;23783;-74
2021/08/10 07:10:47;;;;;;;8.35;6.28;;;;;;;21.48;67.83;99004.76;269382;1088;22512;-74
2021/08/10 07:15:52;;;;;;;8.40;5.58;;;;;;;21.64;67.37;98991.13;269602;1089;22577;-74
2021/08/10 07:20:56;;;;;;;9.25;6.13;;;;;;;21.99;66.70;98987.55;269336;1088;22512;-74
2021/08/10 07:26:01;;;;;;;9.13;5.73;;;;;;;22.38;66.43;98984.80;269517;1090;23462;-74
2021/08/10 07:31:04;;;;;;;7.63;4.85;;;;;;;22.75;65.71;98983.47;269563;1089;22627;-74
2021/08/10 07:36:08;;;;;;;8.23;5.05;;;;;;;23.10;65.10;98976.99;269472;1089;23253;-74
2021/08/10 07:41:25;;;;;;;6.05;4.78;;;;;;;23.37;64.59;98977.01;269627;1088;22588;-74
2021/08/10 07:46:40;;;;;;;9.38;5.13;;;;;;;23.62;63.57;98982.81;269398;1089;22529;-74
2021/08/10 07:51:59;;;;;;;9.38;5.68;;;;;;;23.84;63.64;98974.86;269676;1089;22560;-73
2021/08/10 07:57:23;;;;;;;7.10;5.73;;;;;;;24.04;63.27;98976.30;269581;1088;22550;-73
2021/08/10 08:02:26;;;;;;;6.80;5.50;;;;;;;24.28;62.80;98987.12;269513;1088;22604;-74
2021/08/10 08:07:37;;;;;;;9.18;5.10;;;;;;;24.43;62.24;98983.36;269446;1088;22657;-74
2021/08/10 08:12:47;;;;;;;7.48;4.88;;;;;;;24.57;61.44;98985.44;269531;1089;22581;-73
2021/08/10 08:17:53;;;;;;;6.30;5.00;;;;;;;24.63;60.90;98970.25;269385;1089;22666;-74
2021/08/10 08:23:11;;;;;;;6.90;4.53;;;;;;;24.92;61.17;98975.97;269356;1089;22581;-73
2021/08/10 08:28:21;;;;;;;5.43;4.33;;;;;;;25.20;60.15;98978.12;269629;1089;23695;-72
2021/08/10 08:33:25;;;;;;;4.85;4.33;;;;;;;25.26;59.46;98981.28;269141;1088;22747;-72
2021/08/10 08:38:30;;;;;;;4.47;3.57;;;;;;;25.15;57.59;98980.43;263042;1087;25905;-73
2021/08/10 08:43:33;;;;;;;5.80;3.80;;;;;;;25.10;57.72;98970.63;263060;1088;23753;-74
2021/08/10 08:48:47;;;;;;;3.65;3.30;;;;;;;25.26;57.64;98973.06;263163;1090;24322;-73
2021/08/10 08:54:09;;;;;;;4.35;2.78;;;;;;;25.35;56.83;98970.00;263714;1089;25605;-73
2021/08/10 08:59:15;;;;;;;3.65;3.30;;;;;;;25.40;55.79;98969.64;263457;1089;23654;-73
2021/08/10 09:04:20;;;;;;;3.70;3.30;;;;;;;25.42;54.65;98962.61;263599;1090;23793;-72
2021/08/10 09:09:30;;;;;;;3.65;3.30;;;;;;;25.55;55.49;98967.77;264403;1089;24301;-75
2021/08/10 09:14:51;;;;;;;5.05;2.68;;;;;;;25.88;55.01;98968.67;263440;1088;22768;-75
2021/08/10 09:20:06;;;;;;;5.48;3.05;;;;;;;25.97;53.38;98963.61;264813;1089;25859;-75
2021/08/10 09:25:17;;;;;;;5.67;3.90;;;;;;;26.12;53.19;98959.76;264473;1090;22790;-75
2021/08/10 09:30:26;;;;;;;4.00;3.60;;;;;;;26.35;53.39;98955.09;264728;1088;22844;-75
2021/08/10 09:35:35;;;;;;;4.75;3.90;;;;;;;26.59;52.16;98948.04;263535;1089;22838;-76
2021/08/10 09:40:51;;;;;;;5.87;4.43;;;;;;;26.60;50.97;98955.89;264110;1089;22790;-74
2021/08/10 09:46:07;;;;;;;5.60;3.85;;;;;;;26.68;51.53;98945.70;264167;1087;22776;-74
2021/08/10 09:51:23;;;;;;;4.73;4.23;;;;;;;26.54;50.93;98945.67;263384;1089;22934;-74
2021/08/10 09:56:52;;;;;;;5.08;3.83;;;;;;;26.29;50.56;98940.97;263137;1088;24055;-74
2021/08/10 10:01:59;;;;;;;5.05;4.05;;;;;;;26.34;49.90;98935.06;262745;1089;22790;-75
2021/08/10 10:07:11;;;;;;;4.45;3.85;;;;;;;26.62;50.31;98937.06;263004;1089;23895;-75
2021/08/10 10:12:37;;;;;;;5.33;4.05;;;;;;;27.00;50.57;98935.87;263087;1088;22932;-75
2021/08/10 10:17:43;;;;;;;4.93;4.40;;;;;;;27.26;49.67;98937.38;263282;1089;23397;-74
2021/08/10 10:22:46;;;;;;;5.03;3.60;;;;;;;27.38;48.16;98938.94;263447;1089;22756;-75
2021/08/10 10:28:04;;;;;;;3.55;3.23;;;;;;;27.52;47.37;98927.90;263519;1089;22767;-74
2021/08/10 10:33:21;;;;;;;4.28;2.95;;;;;;;27.44;46.03;98929.88;263199;1089;22754;-75
2021/08/10 10:38:25;;;;;;;3.38;3.08;;;;;;;27.66;46.70;98924.30;263014;1089;26002;-74
2021/08/10 10:43:29;;;;;;;3.40;3.10;;;;;;;27.93;45.58;98907.25;263227;1090;24342;-75
2021/08/10 10:48:33;;;;;;;5.15;3.00;;;;;;;27.95;45.94;98896.61;263226;1089;22790;-75
2021/08/10 10:53:36;;;;;;;3.18;2.70;;;;;;;27.91;44.81;98890.34;263056;1090;24199;-75
2021/08/10 10:58:39;;;;;;;3.83;3.17;;;;;;;28.04;45.04;98891.47;263087;1088;27172;-75
2021/08/10 11:04:06;;;;;;;3.07;2.77;;;;;;;28.00;44.72;98876.95;263003;1089;27236;-73
2021/08/10 11:09:46;;;;;;;3.43;3.10;;;;;;;28.08;44.78;98877.67;263291;1090;22802;-74
2021/08/10 11:15:02;;;;;;;2.95;2.48;;;;;;;28.34;43.88;98877.09;263057;1088;22795;-74
2021/08/10 11:20:24;;;;;;;6.25;2.65;;;;;;;28.50;44.50;98873.03;263259;1088;22769;-74
2021/08/10 11:25:27;;;;;;;3.55;2.85;;;;;;;28.76;44.53;98865.31;263462;1089;22833;-74
2021/08/10 11:30:31;;;;;;;3.98;3.18;;;;;;;28.87;43.24;98865.22;263555;1089;23467;-74
2021/08/10 11:35:38;;;;;;;2.78;2.58;;;;;;;28.91;42.91;98852.17;263192;1089;22782;-74
2021/08/10 11:40:58;;;;;;;4.18;2.40;;;;;;;29.07;42.16;98844.09;263393;1090;26120;-74
2021/08/10 11:46:21;;;;;;;;;;;;;;;29.08;41.14;98845.66;263327;1089;22873;-74
2021/08/10 11:51:35;;;;;;;4.30;2.70;;;;;;;29.19;42.29;98837.27;264217;1090;24861;-74
2021/08/10 11:56:41;;;;;;;5.38;2.68;;;;;;;29.35;41.72;98833.92;263554;1090;25858;-75
2021/08/10 12:01:48;;;;;;;3.78;3.43;;;;;;;29.50;41.74;98827.02;262982;1088;22771;-73
2021/08/10 12:06:56;;;;;;;3.70;3.07;;;;;;;29.31;41.31;98822.95;263051;1088;24335;-74
2021/08/10 12:11:59;;;;;;;3.28;2.98;;;;;;;29.08;41.04;98814.55;263124;1089;25881;-74
2021/08/10 12:17:16;;;;;;;4.83;3.10;;;;;;;28.66;41.02;98800.85;263101;1090;25858;-74
2021/08/10 12:22:24;;;;;;;4.40;3.40;;;;;;;28.63;41.55;98802.45;263308;1089;23057;-74
2021/08/10 12:27:28;;;;;;;;;;;;;;;28.61;41.80;98795.75;263142;1090;22878;-74
2021/08/10 12:32:33;;;;;;;6.20;4.50;;;;;;;28.61;40.85;98791.04;263182;1089;24181;-74
2021/08/10 12:37:50;;;;;;;4.50;3.55;;;;;;;28.87;42.19;98779.76;263716;1089;22829;-75
2021/08/10 12:43:12;;;;;;;4.28;3.80;;;;;;;29.16;42.38;98761.65;262889;1089;22760;-75
2021/08/10 12:48:33;;;;;;;3.83;2.98;;;;;;;29.38;41.08;98760.59;263287;1090;22768;-75
2021/08/10 12:53:37;;;;;;;3.35;3.05;;;;;;;29.46;40.96;98746.27;263332;1089;22795;-75
2021/08/10 12:58:51;;;;;;;4.70;2.78;;;;;;;29.32;40.29;98746.49;263365;1090;22776;-75
2021/08/10 13:04:05;;;;;;;2.88;2.68;;;;;;;29.46;41.60;98728.95;263351;1089;22918;-75
2021/08/10 13:09:10;;;;;;;3.88;2.80;;;;;;;29.63;41.77;98716.06;263206;1089;22804;-75
2021/08/10 13:14:17;;;;;;;2.60;2.40;;;;;;;29.57;39.84;98726.03;263079;1089;22763;-75
2021/08/10 13:19:22;;;;;;;2.83;2.30;;;;;;;29.53;39.73;98724.11;263276;1088;22899;-75
2021/08/10 13:24:26;;;;;;;2.90;2.43;;;;;;;29.38;40.08;98703.46;263147;1088;22766;-75
2021/08/10 13:29:37;;;;;;;3.50;2.40;;;;;;;29.11;40.66;98698.67;265625;1089;22790;-75
2021/08/10 13:34:55;;;;;;;4.63;4.05;;;;;;;29.13;41.64;98681.71;262918;1089;22943;-75
2021/08/10 13:40:12;;;;;;;2.93;2.40;;;;;;;29.18;40.87;98676.53;263675;1089;22946;-76
2021/08/10 13:45:16;;;;;;;3.08;2.60;;;;;;;29.35;39.76;98673.92;263562;1089;27246;-74
2021/08/10 13:50:20;;;;;;;2.90;2.33;;;;;;;29.16;38.52;98665.13;263423;1088;22768;-75
2021/08/10 13:55:24;;;;;;;2.20;2.10;;;;;;;28.99;39.93;98655.16;262859;1090;22990;-75
2021/08/10 14:00:29;;;;;;;15.50;13.95;;;;;;;28.70;38.36;98661.05;263522;1088;25602;-74
2021/08/10 14:05:32;;;;;;;2.40;2.08;;;;;;;28.61;39.84;98663.48;263565;1090;22757;-74
2021/08/10 14:10:36;;;;;;;2.30;2.10;;;;;;;28.66;39.76;98658.33;263059;1089;25905;-74
2021/08/10 14:15:40;;;;;;;2.40;2.20;;;;;;;28.63;39.31;98666.66;263187;1089;25783;-74
2021/08/10 14:20:44;;;;;;;3.15;2.78;;;;;;;28.53;39.24;98662.81;262977;1088;22940;-74
2021/08/10 14:25:47;;;;;;;2.40;2.20;;;;;;;28.62;39.60;98665.05;263010;1090;26287;-74
2021/08/10 14:30:51;;;;;;;4.20;3.20;;;;;;;28.68;39.98;98663.42;262873;1089;23454;-74
2021/08/10 14:35:54;;;;;;;4.08;2.15;;;;;;;28.70;40.04;98674.05;262939;1090;22806;-75
2021/08/10 14:40:58;;;;;;;2.95;2.75;;;;;;;28.61;39.51;98677.27;262866;1088;23463;-75
2021/08/10 14:46:01;;;;;;;2.93;2.05;;;;;;;28.58;39.96;98678.09;262917;1089;26114;-75
2021/08/10 14:51:06;;;;;;;2.78;2.58;;;;;;;28.47;39.67;98672.70;263135;1090;25906;-74
2021/08/10 14:56:08;;;;;;;2.90;2.70;;;;;;;28.13;39.37;98671.51;262999;1088;22857;-74
2021/08/10 15:01:14;;;;;;;2.18;1.98;;;;;;;27.83;39.67;98661.95;263094;1089;25905;-75
2021/08/10 15:06:18;;;;;;;2.43;2.23;;;;;;;27.74;40.13;98645.13;263179;1090;24331;-75
2021/08/10 15:11:21;;;;;;;3.23;2.83;;;;;;;27.65;40.36;98640.11;263040;1090;26729;-75
2021/08/10 15:16:39;;;;;;;4.00;2.83;;;;;;;27.52;40.93;98630.00;262775;1090;25887;-75
2021/08/10 15:22:02;;;;;;;3.00;2.70;;;;;;;27.39;41.32;98636.00;262844;1088;25862;-75
2021/08/10 15:27:06;;;;;;;3.05;2.33;;;;;;;27.40;41.22;98640.32;262922;1087;24326;-75
2021/08/10 15:32:10;;;;;;;2.30;2.10;;;;;;;27.59;41.69;98627.98;263002;1090;25986;-75
2021/08/10 15:37:13;;;;;;;3.05;2.38;;;;;;;27.69;41.89;98631.03;262785;1090;25871;-74
2021/08/10 15:42:16;;;;;;;3.00;2.70;;;;;;;27.72;41.72;98622.75;262860;1089;22777;-73
2021/08/10 15:47:19;;;;;;;2.90;2.55;;;;;;;27.80;41.88;98615.19;262966;1090;22973;-74
2021/08/10 15:52:22;;;;;;;4.23;2.55;;;;;;;27.70;41.95;98619.61;262857;1089;25986;-75
2021/08/10 15:57:27;;;;;;;3.40;2.63;;;;;;;27.33;42.23;98610.88;262830;1090;24045;-75
2021/08/10 16:02:30;;;;;;;3.50;3.20;;;;;;;27.12;42.90;98595.33;262856;1088;25996;-74
2021/08/10 16:07:34;;;;;;;4.00;3.60;;;;;;;26.98;43.19;98600.94;262586;1088;23539;-75
2021/08/10 16:12:38;;;;;;;3.70;3.00;;;;;;;27.02;43.83;98592.69;262819;1090;27400;-75
2021/08/10 16:17:42;;;;;;;2.75;2.45;;;;;;;27.22;44.01;98581.92;262703;1089;22771;-75
2021/08/10 16:22:45;;;;;;;4.90;2.70;;;;;;;27.35;44.48;98569.25;262958;1088;25048;-75
2021/08/10 16:27:50;;;;;;;4.60;3.58;;;;;;;27.40;44.25;98574.31;262948;1089;22844;-74
2021/08/10 16:32:54;;;;;;;2.80;2.50;;;;;;;27.34;44.31;98584.17;264003;1090;25986;-74
2021/08/10 16:37:57;;;;;;;3.83;3.33;;;;;;;27.23;44.32;98600.75;262960;1089;22859;-74
2021/08/10 16:43:00;;;;;;;4.78;4.28;;;;;;;27.15;44.81;98610.23;262910;1090;26002;-75
2021/08/10 16:48:03;;;;;;;3.10;2.80;;;;;;;26.98;44.60;98598.96;262904;1088;26012;-74
2021/08/10 16:53:06;;;;;;;3.88;3.45;;;;;;;26.78;45.19;98615.20;262471;1089;22768;-75
2021/08/10 16:58:09;;;;;;;4.05;3.65;;;;;;;26.56;45.18;98609.00;262945;1088;24301;-74
2021/08/10 17:03:16;;;;;;;20.48;18.33;;;;;;;26.35;45.97;98626.36;262973;1089;25893;-75
2021/08/10 17:08:38;;;;;;;11.10;10.00;;;;;;;26.05;45.99;98626.84;262633;1088;22769;-73
2021/08/10 17:13:41;;;;;;;3.58;3.25;;;;;;;25.80;46.43;98630.42;262826;1090;23696;-74
2021/08/10 17:18:46;;;;;;;5.70;5.20;;;;;;;25.58;47.05;98616.72;262840;1089;22864;-75
2021/08/10 17:23:49;;;;;;;5.90;4.65;;;;;;;25.39;46.97;98615.17;262837;1089;22767;-75
2021/08/10 17:28:54;;;;;;;7.25;4.10;;;;;;;25.23;47.49;98621.00;262855;1090;25960;-75
2021/08/10 17:33:58;;;;;;;4.98;2.85;;;;;;;25.07;47.63;98617.85;262686;1088;22879;-74
2021/08/10 17:39:10;;;;;;;3.95;2.45;;;;;;;24.89;48.14;98621.36;262786;1090;22848;-73
2021/08/10 17:44:20;;;;;;;4.93;2.83;;;;;;;24.65;48.70;98630.29;262772;1090;24424;-75
2021/08/10 17:49:30;;;;;;;3.50;3.18;;;;;;;24.24;49.98;98623.84;262867;1089;22921;-74
2021/08/10 17:54:36;;;;;;;3.93;3.28;;;;;;;23.80;51.84;98638.42;262442;1089;22769;-75
2021/08/10 17:59:39;;;;;;;5.20;3.60;;;;;;;23.40;52.61;98651.00;262721;1089;22911;-74
2021/08/10 18:04:44;;;;;;;5.55;2.90;;;;;;;23.01;53.73;98654.13;262759;1088;22925;-75
2021/08/10 18:09:47;;;;;;;3.67;2.77;;;;;;;22.66;54.46;98688.84;262710;1090;25870;-76
2021/08/10 18:14:51;;;;;;;2.70;2.10;;;;;;;22.35;55.03;98709.11;262781;1090;25973;-75
2021/08/10 18:19:54;;;;;;;3.78;2.20;;;;;;;22.07;55.54;98696.61;262852;1088;24383;-74
2021/08/10 18:24:58;;;;;;;4.03;2.30;;;;;;;21.87;56.21;98691.25;262985;1089;23669;-75
2021/08/10 18:30:03;;;;;;;3.15;2.00;;;;;;;21.63;56.48;98683.45;262722;1089;23475;-74
2021/08/10 18:35:08;;;;;;;2.68;2.18;;;;;;;21.41;56.94;98704.88;262827;1090;25730;-75
2021/08/10 18:40:13;;;;;;;2.40;2.00;;;;;;;21.18;57.73;98708.38;262918;1089;22793;-75
2021/08/10 18:45:15;;;;;;;2.40;2.20;;;;;;;20.95;58.40;98710.25;262789;1088;22821;-75
2021/08/10 18:50:20;;;;;;;3.50;2.20;;;;;;;20.76;59.29;98705.59;262885;1089;22799;-75
2021/08/10 18:55:23;;;;;;;3.03;2.30;;;;;;;20.54;59.74;98709.77;262785;1089;25893;-75
2021/08/10 19:00:26;;;;;;;3.30;2.20;;;;;;;20.36;60.25;98712.91;262822;1090;24294;-75
2021/08/10 19:05:37;;;;;;;5.57;2.30;;;;;;;20.23;61.02;98711.44;262775;1088;23607;-75
2021/08/10 19:10:43;;;;;;;2.95;2.00;;;;;;;20.03;61.52;98708.66;263026;1089;22857;-76
2021/08/10 19:15:48;;;;;;;1.95;1.70;;;;;;;19.84;62.52;98693.09;262873;1089;26024;-75
2021/08/10 19:20:52;;;;;;;3.27;2.40;;;;;;;19.65;63.01;98699.97;262726;1090;22773;-75
2021/08/10 19:25:55;;;;;;;3.25;2.95;;;;;;;19.54;63.92;98690.77;262773;1089;22946;-75
2021/08/10 19:30:58;;;;;;;3.85;3.10;;;;;;;19.47;64.42;98688.69;262607;1089;22783;-75
2021/08/10 19:36:02;;;;;;;5.40;3.00;;;;;;;19.41;64.70;98684.64;262839;1089;22832;-74
2021/08/10 19:41:06;;;;;;;3.35;2.70;;;;;;;19.32;64.90;98690.25;262890;1088;22761;-75
2021/08/10 19:46:09;;;;;;;4.00;2.90;;;;;;;19.28;65.67;98683.93;262787;1090;22750;-75
2021/08/10 19:51:13;;;;;;;5.70;2.95;;;;;;;19.27;66.11;98701.35;262645;1089;23547;-74
2021/08/10 19:56:17;;;;;;;5.25;3.60;;;;;;;19.23;66.38;98705.13;262762;1090;22882;-75
2021/08/10 20:01:20;;;;;;;4.10;3.10;;;;;;;19.18;66.75;98697.22;262995;1089;26111;-75
2021/08/10 20:06:25;;;;;;;13.20;8.30;;;;;;;19.14;67.29;98697.14;262894;1089;22770;-74
2021/08/10 20:11:28;;;;;;;3.83;3.00;;;;;;;19.04;68.17;98712.01;262746;1090;22793;-75
2021/08/10 20:16:32;;;;;;;3.20;2.90;;;;;;;18.94;68.68;98717.91;262791;1090;22851;-75
2021/08/10 20:21:36;;;;;;;6.55;3.10;;;;;;;18.77;68.76;98725.17;262971;1089;25900;-75
2021/08/10 20:26:39;;;;;;;4.85;3.90;;;;;;;18.67;69.33;98733.02;262691;1090;22760;-75
2021/08/10 20:31:46;;;;;;;7.15;3.60;;;;;;;18.58;69.56;98733.13;262762;1089;24555;-75
2021/08/10 20:36:49;;;;;;;6.20;3.80;;;;;;;18.49;69.98;98727.84;262758;1088;22907;-75
2021/08/10 20:41:53;;;;;;;7.70;4.30;;;;;;;18.40;70.45;98735.34;263064;1090;25925;-74
2021/08/10 20:46:59;;;;;;;5.90;4.20;;;;;;;18.32;70.71;98744.39;262772;1088;22790;-75
2021/08/10 20:52:21;;;;;;;4.50;3.37;;;;;;;18.26;70.82;98739.19;262714;1090;24345;-74
2021/08/10 20:57:25;;;;;;;3.70;3.30;;;;;;;18.18;71.03;98748.22;262775;1088;22796;-76
2021/08/10 21:02:37;;;;;;;6.40;3.57;;;;;;;18.08;71.54;98751.40;262791;1088;27099;-75
2021/08/10 21:07:59;;;;;;;4.85;3.00;;;;;;;18.02;71.65;98750.83;262677;1090;22823;-74
2021/08/10 21:13:02;;;;;;;4.20;3.25;;;;;;;17.98;71.96;98762.67;262803;1089;25781;-75
2021/08/10 21:18:07;;;;;;;5.50;3.55;;;;;;;17.97;72.21;98764.59;262911;1088;26033;-74
2021/08/10 21:23:10;;;;;;;4.45;3.20;;;;;;;17.96;72.47;98768.42;262980;1090;23308;-74
2021/08/10 21:28:14;;;;;;;3.70;2.83;;;;;;;17.95;72.61;98770.36;262851;1089;25953;-75
2021/08/10 21:33:19;;;;;;;4.35;3.15;;;;;;;17.95;72.71;98766.87;262912;1088;22796;-74
2021/08/10 21:38:24;;;;;;;4.20;2.60;;;;;;;17.95;72.95;98759.52;262929;1090;26008;-75
2021/08/10 21:43:28;;;;;;;4.80;2.80;;;;;;;18.01;73.07;98757.38;262471;1089;25996;-75
2021/08/10 21:48:32;;;;;;;4.77;3.07;;;;;;;18.10;73.20;98758.06;262763;1089;25986;-74
2021/08/10 21:53:37;;;;;;;4.10;3.05;;;;;;;18.12;73.41;98755.80;262734;1089;22770;-74
2021/08/10 21:58:46;;;;;;;5.30;3.50;;;;;;;18.06;73.15;98750.93;262534;1089;25860;-75
2021/08/10 22:04:00;;;;;;;3.95;2.95;;;;;;;17.98;73.52;98749.12;262819;1090;22943;-75
2021/08/10 22:09:03;;;;;;;4.30;2.95;;;;;;;17.90;73.70;98767.83;262418;1089;23369;-74
2021/08/10 22:14:10;;;;;;;4.80;3.00;;;;;;;17.85;73.61;98770.78;262950;1088;25876;-74
2021/08/10 22:19:15;;;;;;;5.67;3.10;;;;;;;17.78;73.91;98774.04;262788;1090;25877;-75
2021/08/10 22:24:19;;;;;;;3.80;3.30;;;;;;;17.73;74.05;98771.53;262725;1089;22784;-76
2021/08/10 22:29:22;;;;;;;5.70;3.10;;;;;;;17.65;74.15;98763.52;262759;1089;22817;-76
2021/08/10 22:34:25;;;;;;;4.10;2.85;;;;;;;17.62;74.68;98763.04;262781;1089;22772;-75
2021/08/10 22:39:28;;;;;;;3.60;3.05;;;;;;;17.64;74.54;98767.34;262837;1089;24065;-75
2021/08/10 22:44:31;;;;;;;3.80;3.20;;;;;;;17.63;74.79;98755.72;262712;1089;23045;-75
2021/08/10 22:49:34;;;;;;;3.40;2.65;;;;;;;17.71;75.09;98764.87;262848;1089;27226;-74
2021/08/10 22:54:37;;;;;;;3.40;2.90;;;;;;;17.66;74.91;98771.30;262730;1090;22798;-75
2021/08/10 22:59:51;;;;;;;3.50;2.65;;;;;;;17.60;75.06;98776.14;262759;1089;23347;-75
2021/08/10 23:05:25;;;;;;;3.70;2.60;;;;;;;17.58;75.59;98775.67;262696;1090;22814;-76
2021/08/10 23:10:38;;;;;;;5.15;3.05;;;;;;;17.59;76.13;98777.26;262805;1090;22769;-75
2021/08/10 23:15:51;;;;;;;4.50;3.30;;;;;;;17.57;76.43;98784.95;262931;1087;25983;-75
2021/08/10 23:21:11;;;;;;;5.77;3.50;;;;;;;17.42;76.92;98782.87;262917;1090;27023;-75
2021/08/10 23:26:30;;;;;;;4.05;3.65;;;;;;;17.28;77.32;98793.98;262766;1089;22830;-75
2021/08/10 23:31:33;;;;;;;7.10;4.00;;;;;;;17.27;77.77;98797.80;262767;1089;22777;-75
2021/08/10 23:36:44;;;;;;;4.57;3.63;;;;;;;17.31;78.01;98792.53;262771;1089;24361;-74
2021/08/10 23:41:49;;;;;;;7.65;3.55;;;;;;;17.35;78.06;98815.08;262740;1089;26114;-74
2021/08/10 23:46:52;;;;;;;6.87;4.70;;;;;;;17.34;77.82;98802.69;262497;1089;25894;-74
2021/08/10 23:51:55;;;;;;;4.85;4.40;;;;;;;17.31;78.23;98785.19;262781;1088;24074;-74